Airfield :
LOGIN :

Register | Disclaimer

   EN    FR    IT 

 










Legend :    VFR   Marginal VFR   IFR   Intensive IFR   Very Intensive IFR
Visi :
Ceiling :
>= 8 km
>= 3000ft
5 to 8 km
1000 to 3000 ft
1500m to 5 km
500 to 1000 ft
800 to 1500m
200 to 500 ft
< 800m
< 200 ft
Symbols :   Thunderstorms  Fog  Heavy snow  Heavy precipitations  Wind > 20 kt
SIGMETs :     Misc.  Thunderstorms  Icing  Turbulence  Mountain Waves  Volcanic Ashes







- Airport Elevation : 141 ft
- IATA code : SKS


EKSP - Srydstrup Vojens

CURRENT METAR :
  • 191950Z 22015KT 9999 BKN041 19/14 Q1012

EXPIRED METARs :
  • 191920Z 21015KT 9999 BKN041 19/14 Q1012
  • 191850Z 21015KT 9999 SCT042 19/13 Q1012
  • 191820Z 21015KT 190V250 9999 FEW045 SCT220 19/13 Q1012
  • 191750Z 22014KT 9999 FEW045 SCT220 19/13 Q1012
  • 191720Z 22014KT 9999 FEW045 BKN220 19/14 Q1012

TAF TAF EKSP
Valid from the 19 at 18:00 until the 20 at 18:00 UTC


191723Z 1918/2018 21018KT 9999 BKN030
TEMPO 1918/1924 21018G28KT
TEMPO 2000/2005 4000 -RADZ BKN008
BECMG 2000/2003 23010KT
TEMPO 2005/2009 BKN012
TEMPO 2009/2018 22012G25KT 3000 RA BR BKN008
No reported NOTAMs for that airfield.



MET'MAP, your aeronautical weather chart ! - Copyright ORBIFLY December 2007 - Disclaimer

ORBIFLY MET'MAP TEAM :

Programming & Development : Alexandra Zaïnal
Concept & Development : Baudouin d'Aumeries
Co-Development & Prog : Marc-Olivier Méhu
Technical & hardware support : Manuel Goepfert

Contact : metmap@orbifly.com




SOURCES & CREDITS :

   NOAA